< < Back
Terminal Aerodrome Forecast


Current Version              Previous Versions:   1  2  3  4  5  6  7  8  9  

Terminal Aerodrome Forecast

233
FTUS44 KMRX 301128
TAFTYS
TAF
KTYS 301128Z 3012/0112 02005KT P6SM FEW060 SCT250
     FM301600 29007KT P6SM FEW060 SCT250
     FM010000 VRB03KT P6SM SCT250=

Latest METAR

020
SAUS80 KWBC 011100 RRL
MTRTYS
METAR KTYS 011053Z 00000KT 10SM FEW150 SCT250 19/16 A3000 RMK AO2 SLP147
T01890161


USA.gov is the U.S. government's official web portal to all federal, state and local government web resources and services.